עמוד ראשי
METAR-TAF:

METAR-TAF

שדות תעופה :

דקר, סנגל

קו רוחב: 14-40-16N, קו אורך: 17-04-01W, גובה: 88מטר

תצפית מזג אוויר נוכחית

הדו"ח נערך לפני 47דקות, בשעה 23:30 UTC
רוח 5קשר מכיוון מערב
טמפרטורת 25 צלסיוס
לחות 89%
לחץ 1014 hPa
ראות 10 קילומטר או יותר
ללא עננים שבסיסם נמוך מ 5000 רגל או קומולונימבוס

METAR: GOBD 122330Z 26005KT CAVOK 25/23 Q1014 NOSIG

זמן: 00:17 (00:17 UTC)

תחזית

הדו"ח נערך לפני 1 שעות ו 17דקות, בשעה 23:00 UTC
תחזית בתוקף מ 13 ב 00 UTC עד 14 ב 06 UTC
רוח 10קשר מכיוון מערב
ראות 10 קילומטר או יותר
ללא עננים שבסיסם נמוך מ 5000 רגל או קומולונימבוס

TAF: GOBD 122300Z 1300/1406 28010KT CAVOK

תצפיות ותחזיות מזג אוויר לגבי יותר מ- 4,000 שדות תעופה ברחבי העולם. דוחות METAR ו- TAF.

התחנות הזמינות מסומנות בנקודות צהובות ואדומות על גבי המפה.

העבר את העכבר לנקודה הצבעונית על מנת לראות את שם התחנה.

לאחר מכן, לחץ כדי לראות את תוכן ואת תחזיות מזג האוויר.

כדי לשנות את המפה: לחץ על הכפתורים הירוקים עם הפלוס השחור כדי להתקרב; על הכפתור הירוק עם המקף כדי להתרחק; או בחיצים הירוקים למפות סמוכות.


METAR-TAF: